sensor_id;sensor_type;location;lat;lon;timestamp;pressure;altitude;pressure_sealevel;temperature;humidity
75747;BME280;70632;52.232;21.038;2023-11-21T00:01:58;99558.81;;;0.11;86.28
75747;BME280;70632;52.232;21.038;2023-11-21T00:04:26;99562.56;;;0.07;85.72
75747;BME280;70632;52.232;21.038;2023-11-21T00:06:54;99564.19;;;0.10;85.68
75747;BME280;70632;52.232;21.038;2023-11-21T00:09:20;99572.97;;;0.12;85.70
75747;BME280;70632;52.232;21.038;2023-11-21T00:11:45;99572.19;;;0.10;85.84
75747;BME280;70632;52.232;21.038;2023-11-21T00:14:11;99577.47;;;0.11;86.24
75747;BME280;70632;52.232;21.038;2023-11-21T00:16:37;99582.72;;;0.13;85.75
75747;BME280;70632;52.232;21.038;2023-11-21T00:19:03;99583.81;;;0.09;86.01
75747;BME280;70632;52.232;21.038;2023-11-21T00:21:30;99586.72;;;0.04;86.06
75747;BME280;70632;52.232;21.038;2023-11-21T00:23:56;99590.25;;;0.05;85.98
75747;BME280;70632;52.232;21.038;2023-11-21T00:26:24;99589.53;;;0.01;85.37
75747;BME280;70632;52.232;21.038;2023-11-21T00:28:50;99588.72;;;-0.01;85.68
75747;BME280;70632;52.232;21.038;2023-11-21T00:31:16;99602.72;;;0.04;85.93
75747;BME280;70632;52.232;21.038;2023-11-21T00:33:42;99605.28;;;0.06;85.35
75747;BME280;70632;52.232;21.038;2023-11-21T00:36:08;99598.84;;;0.10;85.59
75747;BME280;70632;52.232;21.038;2023-11-21T00:38:36;99608.53;;;0.12;85.70
75747;BME280;70632;52.232;21.038;2023-11-21T00:41:02;99603.41;;;0.08;85.62
75747;BME280;70632;52.232;21.038;2023-11-21T00:43:28;99600.97;;;0.03;85.71
75747;BME280;70632;52.232;21.038;2023-11-21T00:45:54;99597.38;;;0.04;85.00
75747;BME280;70632;52.232;21.038;2023-11-21T00:48:20;99606.94;;;0.08;85.54
75747;BME280;70632;52.232;21.038;2023-11-21T00:50:45;99599.09;;;0.05;84.93
75747;BME280;70632;52.232;21.038;2023-11-21T00:53:11;99605.28;;;0.06;85.09
75747;BME280;70632;52.232;21.038;2023-11-21T00:55:37;99613.19;;;0.07;84.94
75747;BME280;70632;52.232;21.038;2023-11-21T00:58:06;99615.81;;;0.09;84.63
75747;BME280;70632;52.232;21.038;2023-11-21T01:00:33;99615.16;;;0.04;84.23
75747;BME280;70632;52.232;21.038;2023-11-21T01:02:59;99624.63;;;-0.08;84.37
75747;BME280;70632;52.232;21.038;2023-11-21T01:05:25;99618.00;;;-0.18;84.74
75747;BME280;70632;52.232;21.038;2023-11-21T01:07:52;99621.16;;;-0.29;85.14
75747;BME280;70632;52.232;21.038;2023-11-21T01:10:18;99627.09;;;-0.42;85.13
75747;BME280;70632;52.232;21.038;2023-11-21T01:12:44;99629.75;;;-0.42;85.51
75747;BME280;70632;52.232;21.038;2023-11-21T01:15:10;99626.94;;;-0.38;85.96
75747;BME280;70632;52.232;21.038;2023-11-21T01:17:38;99630.41;;;-0.36;85.47
75747;BME280;70632;52.232;21.038;2023-11-21T01:20:04;99628.59;;;-0.36;85.65
75747;BME280;70632;52.232;21.038;2023-11-21T01:22:38;99627.59;;;-0.33;85.11
75747;BME280;70632;52.232;21.038;2023-11-21T01:25:04;99630.19;;;-0.32;85.35
75747;BME280;70632;52.232;21.038;2023-11-21T01:27:36;99633.34;;;-0.24;85.20
75747;BME280;70632;52.232;21.038;2023-11-21T01:30:05;99634.13;;;-0.22;85.13
75747;BME280;70632;52.232;21.038;2023-11-21T01:32:33;99626.13;;;-0.22;85.09
75747;BME280;70632;52.232;21.038;2023-11-21T01:34:59;99639.47;;;-0.22;84.86
75747;BME280;70632;52.232;21.038;2023-11-21T01:37:25;99645.59;;;-0.19;85.46
75747;BME280;70632;52.232;21.038;2023-11-21T01:39:54;99638.31;;;-0.16;84.94
75747;BME280;70632;52.232;21.038;2023-11-21T01:42:21;99635.34;;;-0.10;84.39
75747;BME280;70632;52.232;21.038;2023-11-21T01:44:46;99634.50;;;-0.10;84.21
75747;BME280;70632;52.232;21.038;2023-11-21T01:47:13;99633.72;;;-0.12;83.39
75747;BME280;70632;52.232;21.038;2023-11-21T01:49:39;99638.31;;;-0.16;83.40
75747;BME280;70632;52.232;21.038;2023-11-21T01:52:05;99643.94;;;-0.22;83.46
75747;BME280;70632;52.232;21.038;2023-11-21T01:54:32;99647.97;;;-0.32;84.03
75747;BME280;70632;52.232;21.038;2023-11-21T01:57:01;99642.72;;;-0.34;83.98
75747;BME280;70632;52.232;21.038;2023-11-21T01:59:37;99639.97;;;-0.32;84.71
75747;BME280;70632;52.232;21.038;2023-11-21T02:02:05;99645.09;;;-0.28;84.42
75747;BME280;70632;52.232;21.038;2023-11-21T02:04:34;99646.03;;;-0.29;84.21
75747;BME280;70632;52.232;21.038;2023-11-21T02:07:00;99637.03;;;-0.26;84.34
75747;BME280;70632;52.232;21.038;2023-11-21T02:09:29;99646.72;;;-0.25;84.12
75747;BME280;70632;52.232;21.038;2023-11-21T02:11:57;99644.84;;;-0.23;83.77
75747;BME280;70632;52.232;21.038;2023-11-21T02:14:27;99650.56;;;-0.31;83.70
75747;BME280;70632;52.232;21.038;2023-11-21T02:16:57;99651.50;;;-0.32;83.60
75747;BME280;70632;52.232;21.038;2023-11-21T02:19:23;99647.13;;;-0.33;83.84
75747;BME280;70632;52.232;21.038;2023-11-21T02:21:52;99654.16;;;-0.32;83.62
75747;BME280;70632;52.232;21.038;2023-11-21T02:24:21;99657.84;;;-0.34;83.71
75747;BME280;70632;52.232;21.038;2023-11-21T02:26:48;99660.72;;;-0.39;83.89
75747;BME280;70632;52.232;21.038;2023-11-21T02:29:20;99665.59;;;-0.49;83.33
75747;BME280;70632;52.232;21.038;2023-11-21T02:31:55;99660.41;;;-0.52;83.78
75747;BME280;70632;52.232;21.038;2023-11-21T02:34:21;99669.63;;;-0.59;84.04
75747;BME280;70632;52.232;21.038;2023-11-21T02:36:47;99667.69;;;-0.55;84.66
75747;BME280;70632;52.232;21.038;2023-11-21T02:39:16;99665.09;;;-0.57;84.60
75747;BME280;70632;52.232;21.038;2023-11-21T02:41:43;99662.38;;;-0.55;84.78
75747;BME280;70632;52.232;21.038;2023-11-21T02:44:09;99659.41;;;-0.49;84.37
75747;BME280;70632;52.232;21.038;2023-11-21T02:46:36;99665.88;;;-0.55;84.82
75747;BME280;70632;52.232;21.038;2023-11-21T02:49:02;99667.69;;;-0.55;85.36
75747;BME280;70632;52.232;21.038;2023-11-21T02:51:30;99671.28;;;-0.56;85.83
75747;BME280;70632;52.232;21.038;2023-11-21T02:53:56;99671.16;;;-0.53;86.14
75747;BME280;70632;52.232;21.038;2023-11-21T02:56:26;99664.06;;;-0.54;86.18
75747;BME280;70632;52.232;21.038;2023-11-21T02:58:54;99670.88;;;-0.47;86.11
75747;BME280;70632;52.232;21.038;2023-11-21T03:01:21;99672.50;;;-0.45;85.69
75747;BME280;70632;52.232;21.038;2023-11-21T03:03:46;99674.97;;;-0.40;85.88
75747;BME280;70632;52.232;21.038;2023-11-21T03:06:15;99668.72;;;-0.39;85.31
75747;BME280;70632;52.232;21.038;2023-11-21T03:08:41;99676.53;;;-0.36;84.80
75747;BME280;70632;52.232;21.038;2023-11-21T03:11:08;99673.09;;;-0.38;84.66
75747;BME280;70632;52.232;21.038;2023-11-21T03:13:33;99677.63;;;-0.40;84.65
75747;BME280;70632;52.232;21.038;2023-11-21T03:15:59;99685.59;;;-0.40;84.72
75747;BME280;70632;52.232;21.038;2023-11-21T03:18:25;99681.94;;;-0.37;84.80
75747;BME280;70632;52.232;21.038;2023-11-21T03:20:54;99683.50;;;-0.33;84.99
75747;BME280;70632;52.232;21.038;2023-11-21T03:23:20;99684.19;;;-0.28;84.43
75747;BME280;70632;52.232;21.038;2023-11-21T03:25:46;99688.84;;;-0.33;84.32
75747;BME280;70632;52.232;21.038;2023-11-21T03:28:11;99694.91;;;-0.30;84.07
75747;BME280;70632;52.232;21.038;2023-11-21T03:30:37;99693.31;;;-0.34;83.30
75747;BME280;70632;52.232;21.038;2023-11-21T03:33:03;99689.84;;;-0.36;83.79
75747;BME280;70632;52.232;21.038;2023-11-21T03:35:29;99686.34;;;-0.36;84.36
75747;BME280;70632;52.232;21.038;2023-11-21T03:37:55;99697.06;;;-0.38;84.02
75747;BME280;70632;52.232;21.038;2023-11-21T03:40:22;99694.25;;;-0.35;83.79
75747;BME280;70632;52.232;21.038;2023-11-21T03:42:47;99688.00;;;-0.34;83.58
75747;BME280;70632;52.232;21.038;2023-11-21T03:45:13;99692.31;;;-0.31;83.34
75747;BME280;70632;52.232;21.038;2023-11-21T03:47:42;99692.59;;;-0.37;83.00
75747;BME280;70632;52.232;21.038;2023-11-21T03:50:08;99692.59;;;-0.37;83.41
75747;BME280;70632;52.232;21.038;2023-11-21T03:52:35;99700.50;;;-0.36;82.87
75747;BME280;70632;52.232;21.038;2023-11-21T03:55:01;99696.78;;;-0.32;83.23
75747;BME280;70632;52.232;21.038;2023-11-21T03:57:28;99704.91;;;-0.35;83.56
75747;BME280;70632;52.232;21.038;2023-11-21T03:59:54;99709.28;;;-0.34;84.00
75747;BME280;70632;52.232;21.038;2023-11-21T04:02:19;99717.28;;;-0.34;84.54
75747;BME280;70632;52.232;21.038;2023-11-21T04:04:45;99719.09;;;-0.34;83.90
75747;BME280;70632;52.232;21.038;2023-11-21T04:07:11;99720.22;;;-0.40;84.47
75747;BME280;70632;52.232;21.038;2023-11-21T04:09:40;99722.16;;;-0.44;84.57
75747;BME280;70632;52.232;21.038;2023-11-21T04:12:07;99724.81;;;-0.44;85.57
75747;BME280;70632;52.232;21.038;2023-11-21T04:14:34;99719.59;;;-0.45;85.39
75747;BME280;70632;52.232;21.038;2023-11-21T04:17:00;99725.09;;;-0.50;85.91
75747;BME280;70632;52.232;21.038;2023-11-21T04:19:26;99727.25;;;-0.58;85.83
75747;BME280;70632;52.232;21.038;2023-11-21T04:21:51;99723.72;;;-0.58;86.21
75747;BME280;70632;52.232;21.038;2023-11-21T04:24:17;99727.41;;;-0.61;86.50
75747;BME280;70632;52.232;21.038;2023-11-21T04:26:43;99727.34;;;-0.59;86.56
75747;BME280;70632;52.232;21.038;2023-11-21T04:29:10;99726.38;;;-0.58;86.79
75747;BME280;70632;52.232;21.038;2023-11-21T04:31:35;99726.59;;;-0.63;87.06
75747;BME280;70632;52.232;21.038;2023-11-21T04:34:01;99727.53;;;-0.64;86.87
75747;BME280;70632;52.232;21.038;2023-11-21T04:36:29;99732.00;;;-0.65;87.00
75747;BME280;70632;52.232;21.038;2023-11-21T04:38:56;99728.53;;;-0.67;87.04
75747;BME280;70632;52.232;21.038;2023-11-21T04:41:22;99739.06;;;-0.64;87.16
75747;BME280;70632;52.232;21.038;2023-11-21T04:43:48;99738.09;;;-0.63;87.00
75747;BME280;70632;52.232;21.038;2023-11-21T04:46:14;99735.50;;;-0.64;87.20
75747;BME280;70632;52.232;21.038;2023-11-21T04:48:40;99747.91;;;-0.63;87.36
75747;BME280;70632;52.232;21.038;2023-11-21T04:51:06;99753.06;;;-0.60;86.92
75747;BME280;70632;52.232;21.038;2023-11-21T04:53:35;99755.03;;;-0.64;86.83
75747;BME280;70632;52.232;21.038;2023-11-21T04:56:00;99747.09;;;-0.65;86.55
75747;BME280;70632;52.232;21.038;2023-11-21T04:58:26;99756.09;;;-0.68;86.60
75747;BME280;70632;52.232;21.038;2023-11-21T05:00:52;99753.50;;;-0.69;87.17
75747;BME280;70632;52.232;21.038;2023-11-21T05:03:18;99760.41;;;-0.65;86.70
75747;BME280;70632;52.232;21.038;2023-11-21T05:05:44;99756.75;;;-0.63;86.08
75747;BME280;70632;52.232;21.038;2023-11-21T05:08:10;99750.63;;;-0.65;85.94
75747;BME280;70632;52.232;21.038;2023-11-21T05:10:35;99751.56;;;-0.66;86.01
75747;BME280;70632;52.232;21.038;2023-11-21T06:51:11;99867.97;;;-0.69;84.93
75747;BME280;70632;52.232;21.038;2023-11-21T06:53:46;99868.72;;;-0.66;84.81
75747;BME280;70632;52.232;21.038;2023-11-21T06:56:21;99867.72;;;-0.63;85.02
75747;BME280;70632;52.232;21.038;2023-11-21T07:02:28;99873.03;;;-0.63;84.68
75747;BME280;70632;52.232;21.038;2023-11-21T07:04:54;99868.44;;;-0.59;84.12
75747;BME280;70632;52.232;21.038;2023-11-21T07:07:20;99883.47;;;-0.58;84.36
75747;BME280;70632;52.232;21.038;2023-11-21T07:09:46;99882.38;;;-0.53;83.95
75747;BME280;70632;52.232;21.038;2023-11-21T07:12:13;99884.97;;;-0.51;83.99
75747;BME280;70632;52.232;21.038;2023-11-21T07:14:39;99886.03;;;-0.55;83.99
75747;BME280;70632;52.232;21.038;2023-11-21T07:17:09;99887.94;;;-0.59;84.65
75747;BME280;70632;52.232;21.038;2023-11-21T07:19:34;99887.16;;;-0.61;84.88
75747;BME280;70632;52.232;21.038;2023-11-21T07:22:01;99890.56;;;-0.57;84.34
75747;BME280;70632;52.232;21.038;2023-11-21T07:24:27;99892.22;;;-0.55;84.24
75747;BME280;70632;52.232;21.038;2023-11-21T07:26:52;99889.75;;;-0.59;84.01
75747;BME280;70632;52.232;21.038;2023-11-21T07:29:23;99900.25;;;-0.56;84.03
75747;BME280;70632;52.232;21.038;2023-11-21T07:31:51;99893.06;;;-0.54;84.16
75747;BME280;70632;52.232;21.038;2023-11-21T07:34:17;99900.25;;;-0.56;83.88
75747;BME280;70632;52.232;21.038;2023-11-21T07:36:43;99900.41;;;-0.59;84.03
75747;BME280;70632;52.232;21.038;2023-11-21T07:39:09;99901.22;;;-0.57;83.53
75747;BME280;70632;52.232;21.038;2023-11-21T07:41:36;99903.88;;;-0.57;83.82
75747;BME280;70632;52.232;21.038;2023-11-21T07:44:03;99904.78;;;-0.58;84.03
75747;BME280;70632;52.232;21.038;2023-11-21T07:46:30;99896.78;;;-0.58;84.30
75747;BME280;70632;52.232;21.038;2023-11-21T07:48:56;99900.41;;;-0.59;84.28
75747;BME280;70632;52.232;21.038;2023-11-21T07:51:21;99899.50;;;-0.60;84.50
75747;BME280;70632;52.232;21.038;2023-11-21T07:53:47;99908.66;;;-0.66;84.11
75747;BME280;70632;52.232;21.038;2023-11-21T07:56:13;99902.53;;;-0.68;84.63
75747;BME280;70632;52.232;21.038;2023-11-21T07:58:39;99912.47;;;-0.73;84.32
75747;BME280;70632;52.232;21.038;2023-11-21T08:01:05;99909.69;;;-0.70;84.01
75747;BME280;70632;52.232;21.038;2023-11-21T08:03:31;99911.56;;;-0.72;84.46
75747;BME280;70632;52.232;21.038;2023-11-21T08:05:58;99904.25;;;-0.67;84.61
75747;BME280;70632;52.232;21.038;2023-11-21T08:08:24;99911.97;;;-0.61;84.31
75747;BME280;70632;52.232;21.038;2023-11-21T08:10:50;99904.41;;;-0.49;84.51
75747;BME280;70632;52.232;21.038;2023-11-21T08:13:30;99921.84;;;-0.42;84.11
75747;BME280;70632;52.232;21.038;2023-11-21T08:15:57;99915.66;;;-0.43;83.56
75747;BME280;70632;52.232;21.038;2023-11-21T08:18:27;99920.03;;;-0.42;84.37
75747;BME280;70632;52.232;21.038;2023-11-21T08:20:54;99919.19;;;-0.42;84.80
75747;BME280;70632;52.232;21.038;2023-11-21T08:23:21;99929.63;;;-0.37;84.90
75747;BME280;70632;52.232;21.038;2023-11-21T08:25:51;99927.06;;;-0.39;84.93
75747;BME280;70632;52.232;21.038;2023-11-21T08:28:17;99935.06;;;-0.39;85.48
75747;BME280;70632;52.232;21.038;2023-11-21T08:30:43;99938.63;;;-0.40;84.50
75747;BME280;70632;52.232;21.038;2023-11-21T08:33:10;99941.28;;;-0.40;84.92
75747;BME280;70632;52.232;21.038;2023-11-21T08:35:37;99944.97;;;-0.43;85.03
75747;BME280;70632;52.232;21.038;2023-11-21T08:38:04;99946.75;;;-0.43;84.53
75747;BME280;70632;52.232;21.038;2023-11-21T08:40:29;99949.44;;;-0.43;85.36
75747;BME280;70632;52.232;21.038;2023-11-21T08:42:56;99951.09;;;-0.41;85.48
75747;BME280;70632;52.232;21.038;2023-11-21T08:45:24;99956.22;;;-0.36;85.56
75747;BME280;70632;52.232;21.038;2023-11-21T08:47:51;99951.84;;;-0.37;85.75
75747;BME280;70632;52.232;21.038;2023-11-21T08:50:17;99946.50;;;-0.37;85.87
75747;BME280;70632;52.232;21.038;2023-11-21T08:52:44;99951.69;;;-0.34;85.96
75747;BME280;70632;52.232;21.038;2023-11-21T08:55:11;99950.78;;;-0.33;86.93
75747;BME280;70632;52.232;21.038;2023-11-21T08:57:38;99945.34;;;-0.31;86.09
75747;BME280;70632;52.232;21.038;2023-11-21T09:00:09;99960.44;;;-0.30;85.62
75747;BME280;70632;52.232;21.038;2023-11-21T09:02:41;99964.91;;;-0.31;85.49
75747;BME280;70632;52.232;21.038;2023-11-21T09:05:11;99969.47;;;-0.34;86.00
75747;BME280;70632;52.232;21.038;2023-11-21T09:07:39;99972.19;;;-0.36;85.73
75747;BME280;70632;52.232;21.038;2023-11-21T09:10:06;99963.34;;;-0.36;86.24
75747;BME280;70632;52.232;21.038;2023-11-21T09:12:36;99969.53;;;-0.36;85.88
75747;BME280;70632;52.232;21.038;2023-11-21T09:15:06;99974.00;;;-0.36;86.78
75747;BME280;70632;52.232;21.038;2023-11-21T09:17:33;99975.72;;;-0.35;86.17
75747;BME280;70632;52.232;21.038;2023-11-21T09:20:03;99977.28;;;-0.30;86.59
75747;BME280;70632;52.232;21.038;2023-11-21T09:22:31;99982.47;;;-0.27;86.27
75747;BME280;70632;52.232;21.038;2023-11-21T09:24:57;99982.59;;;-0.30;86.40
75747;BME280;70632;52.232;21.038;2023-11-21T09:27:23;99985.06;;;-0.25;86.82
75747;BME280;70632;52.232;21.038;2023-11-21T09:29:54;99980.63;;;-0.25;86.68
75747;BME280;70632;52.232;21.038;2023-11-21T09:32:21;99979.63;;;-0.22;86.04
75747;BME280;70632;52.232;21.038;2023-11-21T09:34:49;99981.06;;;-0.15;86.87
75747;BME280;70632;52.232;21.038;2023-11-21T09:37:16;99981.69;;;-0.08;87.04
75747;BME280;70632;52.232;21.038;2023-11-21T09:39:42;99990.50;;;-0.06;86.75
75747;BME280;70632;52.232;21.038;2023-11-21T09:42:11;99989.34;;;-0.01;85.59
75747;BME280;70632;52.232;21.038;2023-11-21T09:47:19;99978.63;;;0.01;85.18
75747;BME280;70632;52.232;21.038;2023-11-21T09:49:48;99983.03;;;0.02;84.94
75747;BME280;70632;52.232;21.038;2023-11-21T09:53:25;99983.03;;;0.02;85.32
75747;BME280;70632;52.232;21.038;2023-11-21T09:55:27;99976.75;;;0.03;85.32
75747;BME280;70632;52.232;21.038;2023-11-21T09:57:57;99981.03;;;0.07;84.15
75747;BME280;70632;52.232;21.038;2023-11-21T10:00:23;99979.75;;;0.16;84.49
75747;BME280;70632;52.232;21.038;2023-11-21T10:02:50;99988.28;;;0.24;83.47
75747;BME280;70632;52.232;21.038;2023-11-21T10:05:18;99987.22;;;0.28;82.88
75747;BME280;70632;52.232;21.038;2023-11-21T10:07:49;99989.75;;;0.31;81.56
75747;BME280;70632;52.232;21.038;2023-11-21T10:10:19;99996.16;;;0.27;81.63
75747;BME280;70632;52.232;21.038;2023-11-21T10:12:49;99998.09;;;0.24;81.80
75747;BME280;70632;52.232;21.038;2023-11-21T10:15:16;100008.00;;;0.20;82.76
75747;BME280;70632;52.232;21.038;2023-11-21T10:17:44;99992.00;;;0.20;82.60
75747;BME280;70632;52.232;21.038;2023-11-21T10:20:11;99988.44;;;0.21;82.93
75747;BME280;70632;52.232;21.038;2023-11-21T10:22:42;100010.56;;;0.23;83.01
75747;BME280;70632;52.232;21.038;2023-11-21T10:25:09;100005.28;;;0.22;83.65
75747;BME280;70632;52.232;21.038;2023-11-21T10:27:36;99999.84;;;0.25;82.92
75747;BME280;70632;52.232;21.038;2023-11-21T10:30:04;100007.03;;;0.23;83.39
75747;BME280;70632;52.232;21.038;2023-11-21T10:32:31;100007.75;;;0.26;83.40
75747;BME280;70632;52.232;21.038;2023-11-21T10:35:01;100005.88;;;0.28;82.93
75747;BME280;70632;52.232;21.038;2023-11-21T10:37:39;99998.69;;;0.30;83.23
75747;BME280;70632;52.232;21.038;2023-11-21T10:40:07;100003.94;;;0.32;83.27
75747;BME280;70632;52.232;21.038;2023-11-21T10:42:33;99999.56;;;0.31;83.78
75747;BME280;70632;52.232;21.038;2023-11-21T10:44:59;100002.03;;;0.35;82.97
75747;BME280;70632;52.232;21.038;2023-11-21T10:47:26;100010.78;;;0.39;82.78
75747;BME280;70632;52.232;21.038;2023-11-21T10:49:52;100009.88;;;0.38;82.30
75747;BME280;70632;52.232;21.038;2023-11-21T10:52:21;100010.88;;;0.36;82.02
75747;BME280;70632;52.232;21.038;2023-11-21T10:54:46;100013.75;;;0.31;82.53
75747;BME280;70632;52.232;21.038;2023-11-21T10:57:17;100008.50;;;0.30;83.16
75747;BME280;70632;52.232;21.038;2023-11-21T10:59:46;100016.53;;;0.28;83.20
75747;BME280;70632;52.232;21.038;2023-11-21T11:02:23;100022.69;;;0.30;83.03
75747;BME280;70632;52.232;21.038;2023-11-21T11:05:00;100025.97;;;0.37;81.35
75747;BME280;70632;52.232;21.038;2023-11-21T11:07:27;100023.38;;;0.35;81.58
75747;BME280;70632;52.232;21.038;2023-11-21T11:09:54;100025.16;;;0.35;81.22
75747;BME280;70632;52.232;21.038;2023-11-21T11:12:21;100025.97;;;0.37;82.29
75747;BME280;70632;52.232;21.038;2023-11-21T11:14:48;100025.97;;;0.37;81.16
75747;BME280;70632;52.232;21.038;2023-11-21T11:17:14;100020.63;;;0.37;81.36
75747;BME280;70632;52.232;21.038;2023-11-21T11:19:40;100025.03;;;0.38;81.78
75747;BME280;70632;52.232;21.038;2023-11-21T11:28:07;100028.91;;;0.31;81.99
75747;BME280;70632;52.232;21.038;2023-11-21T11:38:17;100032.75;;;0.24;83.72
75747;BME280;70632;52.232;21.038;2023-11-21T11:40:47;100039.09;;;0.21;82.98
75747;BME280;70632;52.232;21.038;2023-11-21T11:43:13;100038.22;;;0.21;83.13
75747;BME280;70632;52.232;21.038;2023-11-21T11:45:39;100036.38;;;0.23;82.31
75747;BME280;70632;52.232;21.038;2023-11-21T11:48:08;100039.09;;;0.21;82.38
75747;BME280;70632;52.232;21.038;2023-11-21T11:50:42;100036.38;;;0.23;82.44
75747;BME280;70632;52.232;21.038;2023-11-21T11:53:35;100035.69;;;0.17;82.97
75747;BME280;70632;52.232;21.038;2023-11-21T11:56:26;100037.28;;;0.22;82.51
75747;BME280;70632;52.232;21.038;2023-11-21T11:58:57;100037.16;;;0.25;83.12
75747;BME280;70632;52.232;21.038;2023-11-21T12:01:26;100038.88;;;0.26;82.19
75747;BME280;70632;52.232;21.038;2023-11-21T12:06:36;100048.94;;;0.19;81.98
75747;BME280;70632;52.232;21.038;2023-11-21T12:09:02;100045.34;;;0.20;81.83
75747;BME280;70632;52.232;21.038;2023-11-21T12:11:32;100045.28;;;0.22;82.15
75747;BME280;70632;52.232;21.038;2023-11-21T12:13:58;100046.81;;;0.27;81.13
75747;BME280;70632;52.232;21.038;2023-11-21T12:16:25;100042.50;;;0.25;80.77
75747;BME280;70632;52.232;21.038;2023-11-21T12:18:54;100056.91;;;0.21;81.27
75747;BME280;70632;52.232;21.038;2023-11-21T12:21:20;100056.09;;;0.18;81.78
75747;BME280;70632;52.232;21.038;2023-11-21T12:23:47;100056.00;;;0.20;81.22
75747;BME280;70632;52.232;21.038;2023-11-21T12:26:13;100056.94;;;0.19;81.95
75747;BME280;70632;52.232;21.038;2023-11-21T12:28:39;100059.03;;;0.12;82.06
75747;BME280;70632;52.232;21.038;2023-11-21T12:31:05;100067.88;;;0.13;81.30
75747;BME280;70632;52.232;21.038;2023-11-21T12:33:33;100063.19;;;0.18;80.60
75747;BME280;70632;52.232;21.038;2023-11-21T12:35:58;100068.47;;;0.19;80.26
75747;BME280;70632;52.232;21.038;2023-11-21T12:38:24;100075.66;;;0.17;80.54
75747;BME280;70632;52.232;21.038;2023-11-21T12:40:50;100077.47;;;0.17;80.61
75747;BME280;70632;52.232;21.038;2023-11-21T12:43:17;100078.41;;;0.16;80.16
75747;BME280;70632;52.232;21.038;2023-11-21T12:45:43;100070.34;;;0.17;80.45
75747;BME280;70632;52.232;21.038;2023-11-21T12:48:09;100077.41;;;0.18;80.24
75747;BME280;70632;52.232;21.038;2023-11-21T12:50:37;100072.91;;;0.21;80.09
75747;BME280;70632;52.232;21.038;2023-11-21T12:53:05;100077.28;;;0.22;80.16
75747;BME280;70632;52.232;21.038;2023-11-21T12:55:32;100070.13;;;0.22;79.23
75747;BME280;70632;52.232;21.038;2023-11-21T12:58:02;100078.81;;;0.27;79.72
75747;BME280;70632;52.232;21.038;2023-11-21T13:00:38;100076.22;;;0.26;79.46
75747;BME280;70632;52.232;21.038;2023-11-21T13:03:06;100085.06;;;0.26;80.55
75747;BME280;70632;52.232;21.038;2023-11-21T13:05:39;100086.75;;;0.29;80.03
75747;BME280;70632;52.232;21.038;2023-11-21T13:08:08;100088.44;;;0.31;79.42
75747;BME280;70632;52.232;21.038;2023-11-21T13:10:37;100095.56;;;0.31;78.90
75747;BME280;70632;52.232;21.038;2023-11-21T13:13:06;100105.53;;;0.26;80.31
75747;BME280;70632;52.232;21.038;2023-11-21T13:15:35;100098.56;;;0.23;80.67
75747;BME280;70632;52.232;21.038;2023-11-21T13:18:04;100094.88;;;0.26;80.17
75747;BME280;70632;52.232;21.038;2023-11-21T13:20:29;100104.88;;;0.21;80.06
75747;BME280;70632;52.232;21.038;2023-11-21T13:22:57;100094.13;;;0.22;79.42
75747;BME280;70632;52.232;21.038;2023-11-21T13:25:28;100097.59;;;0.24;79.19
75747;BME280;70632;52.232;21.038;2023-11-21T13:27:54;100107.41;;;0.24;79.15
75747;BME280;70632;52.232;21.038;2023-11-21T13:30:23;100110.13;;;0.22;78.78
75747;BME280;70632;52.232;21.038;2023-11-21T13:32:53;100115.56;;;0.21;79.89
75747;BME280;70632;52.232;21.038;2023-11-21T13:35:23;100120.13;;;0.17;80.53
75747;BME280;70632;52.232;21.038;2023-11-21T13:38:12;100123.84;;;0.13;80.26
75747;BME280;70632;52.232;21.038;2023-11-21T13:40:40;100130.19;;;0.10;80.76
75747;BME280;70632;52.232;21.038;2023-11-21T13:43:16;100132.78;;;0.12;80.62
75747;BME280;70632;52.232;21.038;2023-11-21T13:45:45;100141.53;;;0.15;79.03
75747;BME280;70632;52.232;21.038;2023-11-21T13:48:12;100137.78;;;0.19;77.96
75747;BME280;70632;52.232;21.038;2023-11-21T13:50:44;100145.59;;;0.24;77.97
75747;BME280;70632;52.232;21.038;2023-11-21T13:53:23;100149.06;;;0.26;78.16
75747;BME280;70632;52.232;21.038;2023-11-21T13:55:50;100153.00;;;0.17;78.86
75747;BME280;70632;52.232;21.038;2023-11-21T13:58:17;100161.25;;;0.11;78.62
75747;BME280;70632;52.232;21.038;2023-11-21T14:00:49;100175.56;;;0.09;79.97
75747;BME280;70632;52.232;21.038;2023-11-21T14:03:22;100181.00;;;0.06;78.38
75747;BME280;70632;52.232;21.038;2023-11-21T14:05:58;100181.94;;;0.05;79.47
75747;BME280;70632;52.232;21.038;2023-11-21T14:08:26;100184.56;;;0.06;78.95
75747;BME280;70632;52.232;21.038;2023-11-21T14:10:54;100190.69;;;0.08;78.66
75747;BME280;70632;52.232;21.038;2023-11-21T14:13:27;100187.03;;;0.11;78.27
75747;BME280;70632;52.232;21.038;2023-11-21T14:15:53;100198.59;;;0.10;78.47
75747;BME280;70632;52.232;21.038;2023-11-21T14:18:28;100197.81;;;0.08;78.36
75747;BME280;70632;52.232;21.038;2023-11-21T14:21:06;100209.41;;;0.07;77.93
75747;BME280;70632;52.232;21.038;2023-11-21T14:23:33;100213.06;;;0.04;78.48
75747;BME280;70632;52.232;21.038;2023-11-21T14:26:01;100220.94;;;0.07;78.34
75747;BME280;70632;52.232;21.038;2023-11-21T14:28:28;100220.94;;;0.07;79.04
75747;BME280;70632;52.232;21.038;2023-11-21T14:30:54;100222.78;;;0.05;78.90
75747;BME280;70632;52.232;21.038;2023-11-21T14:33:19;100233.44;;;0.05;79.35
75747;BME280;70632;52.232;21.038;2023-11-21T14:35:45;100235.25;;;0.05;78.80
75747;BME280;70632;52.232;21.038;2023-11-21T14:38:14;100242.16;;;0.10;78.52
75747;BME280;70632;52.232;21.038;2023-11-21T14:40:40;100248.16;;;0.15;76.95
75747;BME280;70632;52.232;21.038;2023-11-21T14:43:06;100252.69;;;0.13;78.28
75747;BME280;70632;52.232;21.038;2023-11-21T14:45:32;100250.25;;;0.07;79.56
75747;BME280;70632;52.232;21.038;2023-11-21T14:47:59;100246.78;;;0.05;78.14
75747;BME280;70632;52.232;21.038;2023-11-21T14:50:33;100252.91;;;0.07;77.22
75747;BME280;70632;52.232;21.038;2023-11-21T14:53:11;100255.63;;;0.06;77.20
75747;BME280;70632;52.232;21.038;2023-11-21T14:55:39;100253.88;;;0.06;78.04